createdAt,value
2023-03-03T00:00:59.126Z,10.45
2023-03-03T00:03:27.281Z,11.05
2023-03-03T00:05:54.877Z,11.23
2023-03-03T00:08:23.080Z,10.65
2023-03-03T00:10:51.132Z,10.88
2023-03-03T00:13:22.710Z,11.27
2023-03-03T00:15:51.657Z,11.20
2023-03-03T00:18:36.326Z,11.43
2023-03-03T00:21:29.229Z,12.18
2023-03-03T00:24:22.774Z,10.88
2023-03-03T00:27:00.357Z,10.13
2023-03-03T00:29:37.311Z,11.50
2023-03-03T00:32:24.038Z,11.05
2023-03-03T00:34:54.785Z,10.90
2023-03-03T00:37:34.649Z,11.85
2023-03-03T00:40:27.672Z,11.50
2023-03-03T00:42:58.549Z,9.45
2023-03-03T00:45:38.827Z,11.43
2023-03-03T00:48:38.010Z,12.18
2023-03-03T00:51:36.648Z,10.60
2023-03-03T00:54:04.312Z,11.45
2023-03-03T00:56:31.550Z,11.60
2023-03-03T00:58:58.912Z,12.77
2023-03-03T01:01:28.370Z,11.85
2023-03-03T01:03:55.951Z,12.10
2023-03-03T01:06:23.045Z,11.25
2023-03-03T01:08:50.305Z,10.90
2023-03-03T01:11:24.120Z,11.43
2023-03-03T01:13:53.388Z,11.70
2023-03-03T01:16:21.563Z,11.80
2023-03-03T01:18:48.794Z,11.48
2023-03-03T01:21:15.760Z,12.10
2023-03-03T01:23:42.722Z,11.60
2023-03-03T01:26:10.626Z,10.95
2023-03-03T01:28:39.057Z,11.88
2023-03-03T01:31:06.708Z,11.85
2023-03-03T01:33:35.953Z,12.07
2023-03-03T01:36:04.361Z,10.93
2023-03-03T01:38:31.768Z,12.50
2023-03-03T01:40:59.997Z,12.63
2023-03-03T01:43:32.169Z,12.85
2023-03-03T01:45:59.234Z,13.55
2023-03-03T01:48:35.085Z,13.00
2023-03-03T01:51:17.824Z,13.27
2023-03-03T01:53:49.247Z,12.48
2023-03-03T01:56:16.543Z,13.82
2023-03-03T01:58:52.998Z,13.57
2023-03-03T02:01:23.431Z,13.10
2023-03-03T02:03:51.337Z,13.07
2023-03-03T02:06:23.081Z,13.32
2023-03-03T02:09:08.121Z,13.88
2023-03-03T02:11:38.108Z,13.60
2023-03-03T02:14:05.285Z,13.43
2023-03-03T02:16:32.489Z,14.60
2023-03-03T02:19:00.086Z,13.85
2023-03-03T02:21:28.685Z,13.05
2023-03-03T02:24:21.001Z,12.93
2023-03-03T02:26:48.595Z,13.10
2023-03-03T02:29:15.672Z,13.93
2023-03-03T02:31:43.925Z,12.65
2023-03-03T02:34:11.331Z,13.25
2023-03-03T02:36:40.370Z,14.00
2023-03-03T02:39:18.109Z,14.70
2023-03-03T02:42:22.530Z,13.10
2023-03-03T02:44:53.915Z,13.85
2023-03-03T02:47:21.174Z,13.38
2023-03-03T02:49:48.209Z,13.73
2023-03-03T02:52:17.964Z,13.90
2023-03-03T02:54:46.632Z,12.98
2023-03-03T02:57:13.605Z,13.73
2023-03-03T02:59:40.816Z,13.95
2023-03-03T03:02:13.629Z,14.20
2023-03-03T03:04:41.609Z,13.52
2023-03-03T03:07:10.239Z,15.77
2023-03-03T03:09:38.316Z,14.52
2023-03-03T03:12:05.630Z,15.85
2023-03-03T03:14:35.009Z,14.57
2023-03-03T03:17:02.130Z,16.02
2023-03-03T03:19:29.185Z,15.63
2023-03-03T03:21:58.825Z,16.77
2023-03-03T03:24:26.522Z,16.95
2023-03-03T03:26:58.009Z,16.55
2023-03-03T03:29:26.989Z,17.08
2023-03-03T03:31:54.177Z,17.65
2023-03-03T03:34:21.225Z,18.42
2023-03-03T03:36:49.835Z,17.92
2023-03-03T03:39:18.827Z,18.35
2023-03-03T03:41:47.682Z,18.50
2023-03-03T03:44:14.962Z,19.05
2023-03-03T03:46:42.668Z,17.90
2023-03-03T03:49:10.657Z,16.05
2023-03-03T03:51:41.416Z,15.57
2023-03-03T03:54:10.751Z,15.27
2023-03-03T03:56:38.618Z,13.88
2023-03-03T03:59:09.140Z,15.50
2023-03-03T04:01:37.616Z,14.70
2023-03-03T04:04:05.054Z,14.88
2023-03-03T04:06:32.346Z,12.35
2023-03-03T04:08:59.330Z,12.90
2023-03-03T04:11:28.250Z,13.05
2023-03-03T04:13:55.319Z,12.32
2023-03-03T04:16:22.934Z,13.40
2023-03-03T04:18:50.894Z,13.43
2023-03-03T04:21:18.181Z,14.60
2023-03-03T04:23:46.464Z,14.20
2023-03-03T04:26:13.673Z,14.23
2023-03-03T04:28:42.047Z,14.48
2023-03-03T04:31:10.608Z,14.32
2023-03-03T04:33:37.617Z,15.45
2023-03-03T04:36:06.252Z,13.75
2023-03-03T04:38:33.336Z,14.30
2023-03-03T04:41:00.449Z,12.70
2023-03-03T04:43:30.272Z,14.68
2023-03-03T04:45:57.738Z,13.73
2023-03-03T04:48:24.759Z,14.32
2023-03-03T04:50:52.080Z,12.55
2023-03-03T04:53:20.038Z,13.43
2023-03-03T04:55:47.234Z,14.50
2023-03-03T04:58:16.023Z,16.65
2023-03-03T05:00:43.447Z,16.15
2023-03-03T05:03:13.837Z,14.57
2023-03-03T05:05:42.218Z,14.60
2023-03-03T05:08:09.286Z,15.85
2023-03-03T05:10:36.869Z,17.02
2023-03-03T05:13:04.077Z,17.05
2023-03-03T05:15:31.498Z,15.98
2023-03-03T05:17:58.553Z,15.45
2023-03-03T05:20:26.259Z,16.30
2023-03-03T05:22:53.434Z,15.10
2023-03-03T05:25:22.443Z,16.27
2023-03-03T05:27:49.423Z,15.27
2023-03-03T05:30:16.521Z,16.35
2023-03-03T05:32:43.537Z,15.32
2023-03-03T05:35:10.776Z,14.82
2023-03-03T05:37:40.020Z,16.02
2023-03-03T05:40:08.149Z,15.73
2023-03-03T05:42:35.272Z,15.23
2023-03-03T05:45:02.312Z,15.52
2023-03-03T05:47:29.898Z,14.85
2023-03-03T05:49:56.793Z,14.95
2023-03-03T05:52:24.679Z,15.20
2023-03-03T05:54:51.697Z,16.63
2023-03-03T05:57:19.024Z,16.05
2023-03-03T05:59:46.237Z,16.40
2023-03-03T06:02:13.233Z,17.48
2023-03-03T06:04:40.423Z,17.05
2023-03-03T06:07:07.463Z,17.30
2023-03-03T06:09:34.527Z,16.33
2023-03-03T06:12:01.627Z,16.55
2023-03-03T06:14:28.625Z,16.88
2023-03-03T06:16:57.900Z,17.42
2023-03-03T06:19:25.460Z,16.90
2023-03-03T06:21:52.501Z,17.70
2023-03-03T06:24:19.590Z,19.17
2023-03-03T06:26:46.757Z,18.75
2023-03-03T06:29:15.524Z,18.00
2023-03-03T06:31:43.484Z,18.70
2023-03-03T06:34:11.007Z,20.92
2023-03-03T06:36:37.937Z,19.60
2023-03-03T06:39:04.965Z,19.90
2023-03-03T06:41:32.091Z,19.90
2023-03-03T06:44:00.214Z,20.15
2023-03-03T06:46:27.658Z,19.00
2023-03-03T06:48:54.876Z,19.40
2023-03-03T06:51:31.161Z,17.98
2023-03-03T06:54:02.714Z,18.65
2023-03-03T06:56:31.186Z,18.98
2023-03-03T06:59:02.876Z,16.52
2023-03-03T07:01:36.681Z,17.38
2023-03-03T07:04:31.599Z,16.05
2023-03-03T07:07:08.493Z,14.25
2023-03-03T07:09:35.748Z,16.23
2023-03-03T07:12:16.533Z,17.95
2023-03-03T07:14:47.903Z,18.58
2023-03-03T07:17:19.780Z,16.85
2023-03-03T07:19:48.187Z,17.33
2023-03-03T07:22:25.671Z,17.33
2023-03-03T07:24:55.325Z,16.73
2023-03-03T07:27:30.843Z,16.83
2023-03-03T07:30:28.489Z,15.70
2023-03-03T07:32:58.976Z,15.82
2023-03-03T07:35:41.302Z,14.65
2023-03-03T07:38:41.049Z,16.30
2023-03-03T07:41:35.158Z,14.65
2023-03-03T07:44:10.132Z,17.48
2023-03-03T07:46:42.774Z,16.98
2023-03-03T07:49:37.412Z,18.85
2023-03-03T07:52:39.539Z,17.13
2023-03-03T07:55:41.767Z,17.77
2023-03-03T07:58:12.704Z,17.65
2023-03-03T08:00:39.581Z,17.90
2023-03-03T08:03:17.704Z,17.88
2023-03-03T08:05:48.152Z,18.88
2023-03-03T08:08:42.566Z,18.83
2023-03-03T08:11:09.654Z,18.15
2023-03-03T08:13:38.777Z,20.38
2023-03-03T08:16:11.795Z,19.45
2023-03-03T08:18:53.192Z,19.85
2023-03-03T08:21:23.228Z,19.10
2023-03-03T08:23:51.770Z,19.85
2023-03-03T08:26:20.563Z,19.90
2023-03-03T08:28:48.023Z,20.20
2023-03-03T08:31:25.212Z,18.95
2023-03-03T08:34:01.630Z,21.05
2023-03-03T08:36:28.504Z,20.05
2023-03-03T08:38:55.538Z,20.17
2023-03-03T08:41:22.472Z,20.83
2023-03-03T08:43:49.454Z,19.80
2023-03-03T08:46:16.404Z,20.80
2023-03-03T08:48:43.390Z,21.33
2023-03-03T08:51:10.317Z,20.73
2023-03-03T08:53:40.914Z,22.50
2023-03-03T08:56:08.718Z,19.70
2023-03-03T08:58:36.675Z,22.60
2023-03-03T09:01:04.915Z,21.15
2023-03-03T09:03:32.001Z,21.17
2023-03-03T09:05:58.914Z,20.90
2023-03-03T09:08:26.056Z,24.45
2023-03-03T09:10:53.189Z,21.77
2023-03-03T09:13:20.612Z,21.48
2023-03-03T09:15:49.343Z,19.42
2023-03-03T09:18:27.305Z,17.67
2023-03-03T09:20:57.476Z,17.20
2023-03-03T09:23:33.183Z,16.70
2023-03-03T09:26:47.427Z,16.75
2023-03-03T09:29:14.395Z,16.23
2023-03-03T09:32:00.833Z,17.17
2023-03-03T09:34:36.682Z,17.13
2023-03-03T09:37:29.543Z,18.00
2023-03-03T09:39:57.629Z,15.70
2023-03-03T09:43:00.612Z,16.70
2023-03-03T09:46:00.968Z,15.23
2023-03-03T09:49:26.999Z,14.80
2023-03-03T09:52:22.437Z,16.92
2023-03-03T09:55:14.139Z,16.33
2023-03-03T09:58:10.622Z,19.38
2023-03-03T10:01:32.308Z,17.92
2023-03-03T10:04:37.192Z,18.75
2023-03-03T10:07:37.219Z,19.60
2023-03-03T10:10:15.145Z,19.95
2023-03-03T10:13:07.763Z,19.23
2023-03-03T10:16:10.598Z,21.55
2023-03-03T10:18:56.634Z,19.42
2023-03-03T10:21:35.457Z,17.30
2023-03-03T10:24:30.024Z,14.77
2023-03-03T10:27:14.200Z,18.65
2023-03-03T10:30:13.079Z,18.48
2023-03-03T10:33:02.484Z,19.65
2023-03-03T10:36:06.679Z,20.55
2023-03-03T10:39:02.419Z,20.10
2023-03-03T10:42:22.305Z,18.05
2023-03-03T10:45:17.265Z,16.92
2023-03-03T10:47:46.936Z,16.05
2023-03-03T10:50:56.960Z,16.50
2023-03-03T10:53:34.397Z,14.02
2023-03-03T10:56:22.083Z,14.13
2023-03-03T10:59:14.390Z,15.45
2023-03-03T11:02:07.123Z,15.57
2023-03-03T11:04:51.300Z,15.48
2023-03-03T11:07:40.591Z,15.68
2023-03-03T11:10:35.404Z,15.65
2023-03-03T11:13:30.943Z,12.65
2023-03-03T11:16:17.431Z,12.75
2023-03-03T11:19:08.678Z,14.10
2023-03-03T11:21:47.636Z,14.95
2023-03-03T11:24:26.155Z,14.43
2023-03-03T11:27:12.724Z,16.42
2023-03-03T11:30:24.892Z,13.70
2023-03-03T11:33:10.469Z,14.35
2023-03-03T11:35:59.146Z,15.85
2023-03-03T11:38:49.174Z,16.77
2023-03-03T11:41:31.085Z,15.75
2023-03-03T11:44:35.706Z,16.55
2023-03-03T11:47:21.163Z,16.58
2023-03-03T11:49:56.601Z,15.90
2023-03-03T11:52:45.966Z,16.70
2023-03-03T11:55:17.825Z,19.90
2023-03-03T11:58:08.486Z,18.50
2023-03-03T12:01:01.233Z,19.00
2023-03-03T12:03:48.033Z,18.90
2023-03-03T12:06:44.932Z,20.40
2023-03-03T12:09:31.735Z,19.73
2023-03-03T12:12:08.326Z,18.77
2023-03-03T12:14:59.755Z,20.55
2023-03-03T12:18:05.033Z,20.90
2023-03-03T12:21:05.333Z,20.70
2023-03-03T12:24:04.825Z,20.65
2023-03-03T12:26:52.427Z,18.50
2023-03-03T12:29:37.942Z,19.15
2023-03-03T12:32:45.698Z,20.40
2023-03-03T12:35:29.533Z,20.92
2023-03-03T12:38:41.326Z,20.30
2023-03-03T12:41:33.269Z,18.35
2023-03-03T12:44:16.803Z,17.52
2023-03-03T12:46:43.660Z,16.35
2023-03-03T12:49:10.527Z,16.35
2023-03-03T12:52:09.502Z,16.17
2023-03-03T12:54:46.060Z,14.38
2023-03-03T12:57:45.547Z,13.75
2023-03-03T13:00:24.577Z,13.13
2023-03-03T13:03:08.221Z,13.13
2023-03-03T13:06:02.408Z,13.02
2023-03-03T13:08:46.534Z,12.23
2023-03-03T13:11:42.039Z,11.35
2023-03-03T13:14:45.410Z,12.50
2023-03-03T13:17:35.111Z,11.93
2023-03-03T13:20:12.383Z,14.68
2023-03-03T13:22:59.957Z,13.93
2023-03-03T13:25:42.059Z,13.13
2023-03-03T13:28:44.120Z,14.40
2023-03-03T13:31:18.664Z,15.40
2023-03-03T13:33:57.229Z,16.00
2023-03-03T13:36:52.697Z,15.52
2023-03-03T13:39:27.234Z,15.45
2023-03-03T13:42:03.551Z,14.82
2023-03-03T13:44:42.653Z,14.13
2023-03-03T13:47:33.664Z,13.40
2023-03-03T13:50:41.529Z,13.00
2023-03-03T13:53:15.485Z,13.35
2023-03-03T13:55:50.715Z,14.20
2023-03-03T13:58:50.892Z,15.32
2023-03-03T14:01:48.443Z,17.33
2023-03-03T14:04:49.312Z,18.52
2023-03-03T14:07:33.600Z,18.48
2023-03-03T14:10:25.643Z,17.38
2023-03-03T14:13:04.186Z,14.43
2023-03-03T14:15:50.444Z,14.77
2023-03-03T14:18:55.918Z,15.13
2023-03-03T14:21:43.273Z,13.77
2023-03-03T14:24:23.038Z,14.40
2023-03-03T14:26:58.420Z,14.30
2023-03-03T14:29:28.234Z,14.20
2023-03-03T14:31:57.489Z,14.38
2023-03-03T14:34:24.209Z,15.73
2023-03-03T14:36:58.532Z,15.95
2023-03-03T14:39:36.405Z,16.98
2023-03-03T14:42:31.408Z,18.58
2023-03-03T14:45:01.079Z,17.67
2023-03-03T14:47:29.966Z,16.10
2023-03-03T14:50:02.952Z,15.50
2023-03-03T14:52:33.494Z,15.80
2023-03-03T14:55:06.108Z,14.98
2023-03-03T14:57:41.481Z,14.10
2023-03-03T15:00:14.836Z,13.10
2023-03-03T15:02:43.573Z,12.40
2023-03-03T15:05:26.063Z,12.63
2023-03-03T15:08:05.283Z,12.40
2023-03-03T15:10:40.175Z,12.68
2023-03-03T15:13:38.217Z,11.55
2023-03-03T15:16:21.124Z,11.73
2023-03-03T15:19:18.972Z,11.70
2023-03-03T15:22:18.779Z,12.80
2023-03-03T15:25:05.334Z,11.23
2023-03-03T15:27:42.230Z,11.88
2023-03-03T15:30:31.102Z,11.52
2023-03-03T15:33:15.642Z,12.52
2023-03-03T15:36:00.180Z,11.20
2023-03-03T15:39:00.376Z,12.90
2023-03-03T15:41:45.299Z,11.23
2023-03-03T15:44:21.217Z,9.60
2023-03-03T15:46:57.977Z,10.38
2023-03-03T15:50:06.548Z,10.43
2023-03-03T15:53:07.944Z,10.15
2023-03-03T15:56:05.156Z,10.10
2023-03-03T15:59:02.568Z,9.82
2023-03-03T16:02:21.674Z,9.63
2023-03-03T16:05:15.464Z,10.43
2023-03-03T16:08:13.803Z,9.35
2023-03-03T16:10:54.746Z,9.50
2023-03-03T16:13:45.749Z,9.90
2023-03-03T16:16:49.551Z,10.65
2023-03-03T16:19:47.816Z,9.68
2023-03-03T16:22:49.784Z,10.80
2023-03-03T16:25:55.916Z,10.35
2023-03-03T16:29:08.799Z,10.02
2023-03-03T16:31:58.264Z,10.23
2023-03-03T16:34:45.451Z,10.77
2023-03-03T16:37:32.910Z,10.27
2023-03-03T16:40:17.340Z,10.52
2023-03-03T16:42:44.514Z,9.93
2023-03-03T16:45:28.340Z,10.63
2023-03-03T16:47:58.558Z,11.63
2023-03-03T16:50:39.487Z,10.75
2023-03-03T16:54:11.064Z,11.75
2023-03-03T16:56:52.558Z,11.35
2023-03-03T16:59:53.074Z,11.95
2023-03-03T17:02:49.168Z,11.00
2023-03-03T17:05:57.833Z,12.77
2023-03-03T17:08:46.743Z,11.63
2023-03-03T17:11:41.078Z,11.45
2023-03-03T17:14:42.652Z,12.60
2023-03-03T17:17:47.108Z,12.23
2023-03-03T17:20:38.155Z,12.95
2023-03-03T17:23:33.460Z,13.32
2023-03-03T17:26:54.438Z,13.32
2023-03-03T17:29:51.537Z,14.25
2023-03-03T17:32:32.797Z,14.82
2023-03-03T17:35:15.339Z,14.25
2023-03-03T17:38:32.724Z,13.57
2023-03-03T17:41:30.100Z,13.20
2023-03-03T17:44:41.232Z,13.82
2023-03-03T17:47:27.474Z,12.35
2023-03-03T17:50:11.315Z,12.43
2023-03-03T17:52:58.757Z,12.73
2023-03-03T17:55:45.974Z,13.18
2023-03-03T17:58:27.576Z,13.35
2023-03-03T18:01:10.310Z,15.20
2023-03-03T18:04:01.729Z,16.67
2023-03-03T18:07:08.615Z,16.10
2023-03-03T18:09:54.945Z,12.85
2023-03-03T18:13:00.246Z,14.25
2023-03-03T18:16:11.559Z,12.25
2023-03-03T18:19:03.515Z,11.88
2023-03-03T18:21:38.757Z,11.60
2023-03-03T18:24:34.995Z,11.57
2023-03-03T18:27:23.681Z,11.48
2023-03-03T18:30:28.605Z,12.57
2023-03-03T18:33:01.779Z,12.45
2023-03-03T18:35:39.061Z,12.18
2023-03-03T18:38:18.201Z,11.93
2023-03-03T18:41:00.229Z,12.15
2023-03-03T18:43:45.340Z,12.68
2023-03-03T18:46:22.651Z,13.02
2023-03-03T18:49:08.087Z,13.13
2023-03-03T18:51:35.179Z,13.52
2023-03-03T18:54:12.026Z,12.45
2023-03-03T18:56:48.414Z,13.65
2023-03-03T19:02:12.690Z,12.85
2023-03-03T19:04:44.891Z,12.77
2023-03-03T19:07:43.577Z,13.07
2023-03-03T19:10:22.313Z,13.23
2023-03-03T19:13:00.990Z,12.93
2023-03-03T19:15:31.421Z,12.05
2023-03-03T19:18:03.566Z,14.68
2023-03-03T19:20:46.217Z,13.30
2023-03-03T19:23:52.590Z,14.52
2023-03-03T19:26:21.034Z,13.00
2023-03-03T19:29:13.023Z,12.70
2023-03-03T19:32:32.430Z,13.38
2023-03-03T19:35:28.237Z,13.32
2023-03-03T19:38:23.118Z,14.07
2023-03-03T19:41:40.298Z,14.15
2023-03-03T19:44:47.989Z,13.85
2023-03-03T19:47:40.059Z,12.82
2023-03-03T19:50:25.733Z,14.50
2023-03-03T19:53:18.701Z,13.63
2023-03-03T19:55:55.034Z,14.05
2023-03-03T19:58:50.738Z,14.68
2023-03-03T20:02:10.759Z,13.68
2023-03-03T20:05:14.990Z,14.77
2023-03-03T20:08:01.088Z,13.85
2023-03-03T20:10:57.509Z,15.68
2023-03-03T20:14:37.759Z,13.93
2023-03-03T20:17:30.963Z,12.80
2023-03-03T20:20:31.723Z,13.80
2023-03-03T20:24:05.917Z,15.05
2023-03-03T20:26:47.039Z,13.25
2023-03-03T20:29:41.994Z,13.35
2023-03-03T20:32:54.923Z,12.65
2023-03-03T20:36:18.252Z,13.02
2023-03-03T20:39:05.188Z,13.32
2023-03-03T20:44:10.758Z,11.30
2023-03-03T20:47:05.310Z,12.77
2023-03-03T20:49:49.444Z,10.60
2023-03-03T20:53:20.650Z,10.70
2023-03-03T20:56:19.876Z,11.82
2023-03-03T20:59:12.881Z,11.43
2023-03-03T21:02:10.189Z,9.93
2023-03-03T21:04:38.228Z,11.18
2023-03-03T21:07:06.002Z,12.32
2023-03-03T21:09:39.274Z,12.20
2023-03-03T21:12:32.721Z,12.52
2023-03-03T21:15:26.015Z,10.68
2023-03-03T21:17:55.004Z,10.88
2023-03-03T21:20:34.982Z,12.25
2023-03-03T21:23:03.069Z,11.80
2023-03-03T21:25:44.030Z,11.02
2023-03-03T21:28:33.515Z,12.90
2023-03-03T21:31:13.503Z,11.38
2023-03-03T21:33:48.141Z,11.57
2023-03-03T21:36:37.199Z,10.55
2023-03-03T21:39:25.939Z,11.18
2023-03-03T21:42:03.331Z,10.07
2023-03-03T21:44:52.292Z,10.65
2023-03-03T21:47:22.253Z,10.30
2023-03-03T21:49:51.988Z,9.63
2023-03-03T21:52:21.653Z,10.63
2023-03-03T21:54:52.098Z,10.77
2023-03-03T21:57:19.369Z,12.13
2023-03-03T21:59:46.470Z,10.75
2023-03-03T22:02:13.521Z,10.27
2023-03-03T22:04:41.069Z,10.18
2023-03-03T22:07:09.654Z,11.00
2023-03-03T22:09:38.323Z,9.48
2023-03-03T22:12:07.729Z,9.90
2023-03-03T22:14:35.070Z,9.45
2023-03-03T22:17:02.388Z,9.52
2023-03-03T22:19:30.006Z,10.57
2023-03-03T22:21:57.057Z,9.98
2023-03-03T22:24:24.062Z,10.07
2023-03-03T22:26:51.199Z,9.43
2023-03-03T22:29:22.681Z,10.75
2023-03-03T22:31:51.274Z,10.48
2023-03-03T22:34:18.667Z,10.65
2023-03-03T22:36:45.623Z,8.85
2023-03-03T22:39:12.655Z,10.27
2023-03-03T22:41:39.595Z,9.57
2023-03-03T22:44:06.576Z,9.70
2023-03-03T22:46:33.518Z,8.75
2023-03-03T22:49:00.494Z,10.00
2023-03-03T22:51:27.380Z,8.73
2023-03-03T22:53:54.393Z,10.77
2023-03-03T22:56:21.258Z,10.10
2023-03-03T22:58:49.100Z,11.20
2023-03-03T23:01:16.185Z,12.18
2023-03-03T23:03:43.065Z,13.27
2023-03-03T23:06:10.145Z,13.27
2023-03-03T23:08:37.041Z,13.88
2023-03-03T23:11:04.242Z,13.05
2023-03-03T23:13:32.320Z,14.32
2023-03-03T23:16:00.306Z,13.57
2023-03-03T23:18:28.583Z,15.57
2023-03-03T23:20:57.059Z,15.32
2023-03-03T23:23:24.536Z,15.32
2023-03-03T23:25:51.731Z,18.35
2023-03-03T23:28:19.308Z,18.63
2023-03-03T23:30:46.482Z,18.50
2023-03-03T23:33:13.701Z,17.10
2023-03-03T23:35:40.996Z,18.50
2023-03-03T23:38:08.021Z,16.48
2023-03-03T23:40:35.140Z,18.05
2023-03-03T23:43:02.044Z,17.58
2023-03-03T23:45:29.171Z,18.23
2023-03-03T23:47:56.144Z,18.02
2023-03-03T23:50:23.142Z,16.23
2023-03-03T23:52:50.141Z,15.70
2023-03-03T23:55:17.117Z,17.27
2023-03-03T23:57:44.084Z,18.30
